EGGPEGNH

Guest
Details From EGGP - Liverpool John Lennon
To EGNH - Blackpool
Flight Number -
Tags Routegen Generated
Created
Modified
Stats Distance 35 nm / 65 km
Max Altitude 100 ft / 30 m
Waypoints 5
Social Downloads 2
Likes 0
Share VATSIM

Download

Looking for another format? Having issues loading an existing format? Contact us
Advertisement - Login to hide

Notes

Departing runway 8 EGGP. Arriving runway 9 EGNH.

Route

EGGP +53.34_-002.71 +53.55_-002.80 +53.76_-002.89 EGNH

ID Type Via Altitude Latitude Longitude Leg Dist Tot Dist Heading (true) Name
O EGGP APT - 0 ft / 0 m 53.33442˚ -2.83269˚ - 0 nm - -
+53.34_-002.71 LATLON - 100 ft / 30 m 53.33990˚ -2.71185˚ 4 nm 4 nm 86° / 86° -
+53.55_-002.80 LATLON - 100 ft / 30 m 53.55241˚ -2.80213˚ 13 nm 17 nm 346° / 346° -
+53.76_-002.89 LATLON - 100 ft / 30 m 53.76492˚ -2.89242˚ 13 nm 30 nm 346° / 346° -
O EGNH APT - 0 ft / 0 m 53.77088˚ -3.01444˚ 4 nm 35 nm 275° / 275° -

Altitude Profile

Advertisement - Login to hide

EGGP

Details ICAO EGGP (LPL)
Name Liverpool
Region United Kingdom
Timezone Europe/London (UTC+1.0)
Stats Elevation 80 ft / 24 m (AMSL)
Location 53.333632° -2.849769°
Runways 1
Magnetic Variation 1.604° W

METAR

EGGP 251720Z 05014KT 9999 FEW013 SCT028 15/13 Q1019

Decode

TAF

TAF AMD EGGP 251625Z 2516/2612 04008KT 9999 FEW015 SCT030 TEMPO 2516/2609 BKN012 TEMPO 2516/2520 7000 SHRA

Decode

Departure Runways

ID Width Length Bearing (true) Bearing (mag) Surface Threshold Offset Overrun Length
09 151 ft / 46 m 7,466 ft / 2,276 m 85.59° 87.19° Asphalt 180 ft / 55 m 0 ft / 0 m
27 151 ft / 46 m 7,466 ft / 2,276 m 265.61° 267.21° Asphalt 0 ft / 0 m 0 ft / 0 m

EGNH

Details ICAO EGNH (BLK)
Name Blackpool
Region United Kingdom
Timezone Europe/London (UTC+1.0)
Stats Elevation 34 ft / 10 m (AMSL)
Location 53.772383° -3.032609°
Runways 3
Magnetic Variation 1.740° W

METAR

EGNH 251720Z 04009KT 010V070 9999 -RA SCT008 BKN019 16/14 Q1020

Decode

TAF

Not found

Destination Runways

ID Width Length Bearing (true) Bearing (mag) Surface Threshold Offset Overrun Length
07 98 ft / 30 m 4,204 ft / 1,281 m 67.79° 69.53° Asphalt 262 ft / 80 m 0 ft / 0 m
10 151 ft / 46 m 6,112 ft / 1,863 m 94.65° 96.39° Asphalt 0 ft / 0 m 0 ft / 0 m
13 75 ft / 23 m 3,034 ft / 925 m 127.37° 129.11° Asphalt 0 ft / 0 m 0 ft / 0 m
25 98 ft / 30 m 4,204 ft / 1,281 m 247.81° 249.55° Asphalt 1,936 ft / 590 m 0 ft / 0 m
28 151 ft / 46 m 6,112 ft / 1,863 m 274.67° 276.41° Asphalt 0 ft / 0 m 0 ft / 0 m
31 75 ft / 23 m 3,034 ft / 925 m 307.38° 309.12° Asphalt 0 ft / 0 m 0 ft / 0 m

Approach Navaids

Runway Type Ident Frequency Range Bearing (true) Bearing (mag) Slope Elevation
28 Localiser IBPL 108.15 MHz 18 nm / 33 km 274.64° 276.39° - 55 ft / 17 m (AMSL)
28 Glidescope IBPL 108.15 MHz 10 nm / 19 km 274.66° 276.40° 3.00° 55 ft / 17 m (AMSL)

Popular Alternatives